createdAt,value
2023-04-10T00:02:55.494Z,4.20
2023-04-10T00:06:17.163Z,4.20
2023-04-10T00:09:38.717Z,4.20
2023-04-10T00:13:00.279Z,4.20
2023-04-10T00:16:21.921Z,4.10
2023-04-10T00:19:44.851Z,4.10
2023-04-10T00:23:06.431Z,4.10
2023-04-10T00:26:28.009Z,4.10
2023-04-10T00:29:49.561Z,4.00
2023-04-10T00:33:11.203Z,4.00
2023-04-10T00:36:34.178Z,4.00
2023-04-10T00:39:55.757Z,4.00
2023-04-10T00:43:18.223Z,4.00
2023-04-10T00:46:39.887Z,4.10
2023-04-10T00:50:01.468Z,4.10
2023-04-10T00:53:24.518Z,4.20
2023-04-10T00:56:46.075Z,4.20
2023-04-10T01:00:08.479Z,4.10
2023-04-10T01:03:30.225Z,4.10
2023-04-10T01:06:54.052Z,4.00
2023-04-10T01:10:18.286Z,3.90
2023-04-10T01:13:43.570Z,3.80
2023-04-10T01:17:07.307Z,3.70
2023-04-10T01:20:30.691Z,3.70
2023-04-10T01:24:14.967Z,3.60
2023-04-10T01:27:44.130Z,3.50
2023-04-10T01:31:08.632Z,3.40
2023-04-10T01:34:32.870Z,3.40
2023-04-10T01:37:54.980Z,3.30
2023-04-10T01:41:18.478Z,3.30
2023-04-10T01:44:41.646Z,3.20
2023-04-10T01:48:04.914Z,3.20
2023-04-10T01:51:26.966Z,3.20
2023-04-10T01:54:48.790Z,3.20
2023-04-10T01:58:10.557Z,3.10
2023-04-10T02:01:32.184Z,3.10
2023-04-10T02:04:55.137Z,3.10
2023-04-10T02:08:20.275Z,3.10
2023-04-10T02:11:44.412Z,3.10
2023-04-10T02:15:06.549Z,3.00
2023-04-10T02:18:28.196Z,3.00
2023-04-10T02:21:51.289Z,3.00
2023-04-10T02:25:12.872Z,2.90
2023-04-10T02:28:34.551Z,2.90
2023-04-10T02:31:56.162Z,2.90
2023-04-10T02:35:17.888Z,2.90
2023-04-10T02:38:41.106Z,2.90
2023-04-10T02:42:02.693Z,2.90
2023-04-10T02:45:24.283Z,2.80
2023-04-10T02:48:45.885Z,2.80
2023-04-10T02:52:07.597Z,2.70
2023-04-10T02:55:30.525Z,2.70
2023-04-10T02:58:52.058Z,2.70
2023-04-10T03:02:13.747Z,2.70
2023-04-10T03:05:35.398Z,2.60
2023-04-10T03:08:56.964Z,2.60
2023-04-10T03:12:19.834Z,2.60
2023-04-10T03:15:41.416Z,2.50
2023-04-10T03:19:03.170Z,2.50
2023-04-10T03:22:24.807Z,2.50
2023-04-10T03:25:49.344Z,2.50
2023-04-10T03:29:12.235Z,2.50
2023-04-10T03:32:33.788Z,2.50
2023-04-10T03:35:55.371Z,2.50
2023-04-10T03:39:16.952Z,2.60
2023-04-10T03:42:38.508Z,2.60
2023-04-10T03:46:01.469Z,2.50
2023-04-10T03:49:23.060Z,2.60
2023-04-10T03:52:44.629Z,2.60
2023-04-10T03:56:06.777Z,2.60
2023-04-10T03:59:37.817Z,2.60
2023-04-10T04:03:01.792Z,2.60
2023-04-10T04:06:23.457Z,2.60
2023-04-10T04:09:45.021Z,2.60
2023-04-10T04:13:06.611Z,2.60
2023-04-10T04:16:28.233Z,2.60
2023-04-10T04:19:51.163Z,2.50
2023-04-10T04:23:12.694Z,2.50
2023-04-10T04:26:34.350Z,2.60
2023-04-10T04:29:55.889Z,2.60
2023-04-10T04:33:17.427Z,2.60
2023-04-10T04:36:40.369Z,2.60
2023-04-10T04:40:09.588Z,2.70
2023-04-10T04:43:31.402Z,2.70
2023-04-10T04:46:52.977Z,2.70
2023-04-10T04:50:14.547Z,2.70
2023-04-10T04:53:37.887Z,2.80
2023-04-10T04:56:59.464Z,2.90
2023-04-10T05:00:21.838Z,2.90
2023-04-10T05:03:43.580Z,3.00
2023-04-10T05:07:05.271Z,3.10
2023-04-10T05:10:28.250Z,3.20
2023-04-10T05:13:49.840Z,3.40
2023-04-10T05:17:11.392Z,3.50
2023-04-10T05:20:34.489Z,3.70
2023-04-10T05:23:56.024Z,4.00
2023-04-10T05:27:18.922Z,4.20
2023-04-10T05:30:40.543Z,4.40
2023-04-10T05:34:02.096Z,4.70
2023-04-10T05:37:23.685Z,4.90
2023-04-10T05:40:45.321Z,5.10
2023-04-10T05:44:08.250Z,5.40
2023-04-10T05:47:29.794Z,5.70
2023-04-10T05:50:51.443Z,6.00
2023-04-10T05:54:13.008Z,6.50
2023-04-10T05:57:34.553Z,6.80
2023-04-10T06:00:57.478Z,7.40
2023-04-10T06:04:19.255Z,8.00
2023-04-10T06:07:40.964Z,9.00
2023-04-10T06:11:02.583Z,9.40
2023-04-10T06:14:24.160Z,10.00
2023-04-10T06:17:47.052Z,10.20
2023-04-10T06:21:08.790Z,10.20
2023-04-10T06:24:30.425Z,10.60
2023-04-10T06:27:52.182Z,10.60
2023-04-10T06:31:13.814Z,11.00
2023-04-10T06:34:36.717Z,11.30
2023-04-10T06:37:58.271Z,11.30
2023-04-10T06:41:19.808Z,12.00
2023-04-10T06:44:41.364Z,12.40
2023-04-10T06:48:03.010Z,12.20
2023-04-10T06:51:26.226Z,12.20
2023-04-10T06:54:47.805Z,12.70
2023-04-10T06:58:09.337Z,13.30
2023-04-10T07:01:30.886Z,14.40
2023-04-10T07:04:52.469Z,15.70
2023-04-10T07:08:16.303Z,16.50
2023-04-10T07:11:37.934Z,17.50
2023-04-10T07:14:59.492Z,18.30
2023-04-10T07:18:21.041Z,19.30
2023-04-10T07:21:42.556Z,19.90
2023-04-10T07:25:06.034Z,20.40
2023-04-10T07:28:27.711Z,20.90
2023-04-10T07:31:49.387Z,21.10
2023-04-10T07:35:11.012Z,21.20
2023-04-10T07:38:32.717Z,21.80
2023-04-10T07:41:55.585Z,22.00
2023-04-10T07:45:17.193Z,22.60
2023-04-10T07:48:38.781Z,22.70
2023-04-10T07:52:00.330Z,22.30
2023-04-10T07:55:22.039Z,22.10
2023-04-10T07:58:45.188Z,21.40
2023-04-10T08:02:06.901Z,22.50
2023-04-10T08:05:28.582Z,22.90
2023-04-10T08:08:50.223Z,23.20
2023-04-10T08:12:11.775Z,23.60
2023-04-10T08:15:34.701Z,24.30
2023-04-10T08:18:56.833Z,24.60
2023-04-10T08:22:18.548Z,24.30
2023-04-10T08:25:40.121Z,24.50
2023-04-10T08:29:01.739Z,24.00
2023-04-10T08:32:24.678Z,22.50
2023-04-10T08:35:47.146Z,21.70
2023-04-10T08:39:08.695Z,20.70
2023-04-10T08:42:30.391Z,21.00
2023-04-10T08:45:52.270Z,20.10
2023-04-10T08:49:17.589Z,19.60
2023-04-10T08:52:42.155Z,19.70
2023-04-10T08:56:03.956Z,19.90
2023-04-10T08:59:25.546Z,20.20
2023-04-10T09:02:47.256Z,20.50
2023-04-10T09:06:10.286Z,20.90
2023-04-10T09:09:31.859Z,20.70
2023-04-10T09:12:53.436Z,21.10
2023-04-10T09:16:15.021Z,21.90
2023-04-10T09:19:36.622Z,22.00
2023-04-10T09:22:59.499Z,22.10
2023-04-10T09:26:24.864Z,22.10
2023-04-10T09:29:46.984Z,22.00
2023-04-10T09:33:21.208Z,22.00
2023-04-10T09:36:43.622Z,22.30
2023-04-10T09:40:19.199Z,22.60
2023-04-10T09:43:40.823Z,22.70
2023-04-10T09:47:15.566Z,22.70
2023-04-10T09:50:39.948Z,22.20
2023-04-10T09:54:02.782Z,21.60
2023-04-10T09:57:26.480Z,21.70
2023-04-10T10:00:48.658Z,21.10
2023-04-10T10:04:10.330Z,20.70
2023-04-10T10:07:31.887Z,19.80
2023-04-10T10:10:54.576Z,19.70
2023-04-10T10:14:18.545Z,19.70
2023-04-10T10:17:43.507Z,19.90
2023-04-10T10:21:05.400Z,20.30
2023-04-10T10:24:27.806Z,21.10
2023-04-10T10:27:49.606Z,20.40
2023-04-10T10:31:12.908Z,20.70
2023-04-10T10:34:34.964Z,21.20
2023-04-10T10:37:58.253Z,21.10
2023-04-10T10:41:23.585Z,20.40
2023-04-10T10:44:47.667Z,19.40
2023-04-10T10:48:10.587Z,18.80
2023-04-10T10:51:42.824Z,18.80
2023-04-10T10:55:23.054Z,18.50
2023-04-10T10:58:48.375Z,18.10
2023-04-10T11:02:13.296Z,18.10
2023-04-10T11:05:52.108Z,18.00
2023-04-10T11:09:28.570Z,18.00
2023-04-10T11:13:05.059Z,18.20
2023-04-10T11:16:41.889Z,18.10
2023-04-10T11:20:03.770Z,18.10
2023-04-10T11:23:26.660Z,18.40
2023-04-10T11:26:48.234Z,18.70
2023-04-10T11:30:24.708Z,18.90
2023-04-10T11:33:46.999Z,19.00
2023-04-10T11:37:08.564Z,18.70
2023-04-10T11:40:31.475Z,18.30
2023-04-10T11:43:53.051Z,18.10
2023-04-10T11:47:14.689Z,17.90
2023-04-10T11:50:36.349Z,17.70
2023-04-10T11:54:04.429Z,17.40
2023-04-10T11:57:34.036Z,17.60
2023-04-10T12:00:59.025Z,17.70
2023-04-10T12:04:21.591Z,17.60
2023-04-10T12:07:43.329Z,17.80
2023-04-10T12:11:05.083Z,17.70
2023-04-10T12:14:31.644Z,17.60
2023-04-10T12:17:53.338Z,17.50
2023-04-10T12:21:14.975Z,17.50
2023-04-10T12:24:43.692Z,17.50
2023-04-10T12:28:05.410Z,17.50
2023-04-10T12:31:28.785Z,17.30
2023-04-10T12:34:50.715Z,17.30
2023-04-10T12:38:12.275Z,17.50
2023-04-10T12:41:34.220Z,17.70
2023-04-10T12:44:56.571Z,17.90
2023-04-10T12:48:23.897Z,17.90
2023-04-10T12:51:46.050Z,18.10
2023-04-10T12:55:08.678Z,18.20
2023-04-10T12:58:30.561Z,18.30
2023-04-10T13:01:52.285Z,18.50
2023-04-10T13:05:15.416Z,18.40
2023-04-10T13:08:36.984Z,18.30
2023-04-10T13:11:58.531Z,18.10
2023-04-10T13:15:20.134Z,18.10
2023-04-10T13:18:41.721Z,18.50
2023-04-10T13:22:04.613Z,18.60
2023-04-10T13:25:26.180Z,18.70
2023-04-10T13:28:47.755Z,18.90
2023-04-10T13:32:09.745Z,18.60
2023-04-10T13:35:33.159Z,18.60
2023-04-10T13:38:56.442Z,18.60
2023-04-10T13:42:18.263Z,18.60
2023-04-10T13:45:39.819Z,18.50
2023-04-10T13:49:01.399Z,18.40
2023-04-10T13:52:22.945Z,18.40
2023-04-10T13:55:45.848Z,18.40
2023-04-10T13:59:07.415Z,18.20
2023-04-10T14:02:29.071Z,18.30
2023-04-10T14:05:50.728Z,18.30
2023-04-10T14:09:12.293Z,18.30
2023-04-10T14:12:36.162Z,18.50
2023-04-10T14:15:59.249Z,18.60
2023-04-10T14:19:20.804Z,18.70
2023-04-10T14:22:42.361Z,19.00
2023-04-10T14:26:04.713Z,19.00
2023-04-10T14:29:37.326Z,18.90
2023-04-10T14:33:00.663Z,18.60
2023-04-10T14:36:22.288Z,18.60
2023-04-10T14:39:43.834Z,18.40
2023-04-10T14:43:05.422Z,18.40
2023-04-10T14:46:28.350Z,18.40
2023-04-10T14:49:49.887Z,18.40
2023-04-10T14:53:11.444Z,18.30
2023-04-10T14:56:33.002Z,18.30
2023-04-10T14:59:54.553Z,18.20
2023-04-10T15:03:17.482Z,18.30
2023-04-10T15:06:39.113Z,18.30
2023-04-10T15:10:00.690Z,18.40
2023-04-10T15:13:22.365Z,18.40
2023-04-10T15:16:43.941Z,18.30
2023-04-10T15:20:08.358Z,18.20
2023-04-10T15:23:29.944Z,18.10
2023-04-10T15:26:51.496Z,18.00
2023-04-10T15:30:13.126Z,17.80
2023-04-10T15:33:34.686Z,17.80
2023-04-10T15:36:57.591Z,17.80
2023-04-10T15:40:19.176Z,17.80
2023-04-10T15:43:40.729Z,17.70
2023-04-10T15:47:02.316Z,17.60
2023-04-10T15:50:23.901Z,17.60
2023-04-10T15:53:46.802Z,17.60
2023-04-10T15:57:08.366Z,17.60
2023-04-10T16:00:29.942Z,17.40
2023-04-10T16:03:51.811Z,17.40
2023-04-10T16:07:13.446Z,17.40
2023-04-10T16:10:36.333Z,17.40
2023-04-10T16:13:58.000Z,17.50
2023-04-10T16:17:19.657Z,17.60
2023-04-10T16:20:41.397Z,17.60
2023-04-10T16:24:03.070Z,17.60
2023-04-10T16:27:26.179Z,17.50
2023-04-10T16:30:47.760Z,17.40
2023-04-10T16:34:09.308Z,17.30
2023-04-10T16:37:30.859Z,17.30
2023-04-10T16:40:52.424Z,17.10
2023-04-10T16:44:15.364Z,17.10
2023-04-10T16:47:36.926Z,17.00
2023-04-10T16:50:58.504Z,16.90
2023-04-10T16:54:20.117Z,16.80
2023-04-10T16:57:42.006Z,16.60
2023-04-10T17:01:13.786Z,16.50
2023-04-10T17:04:35.401Z,16.40
2023-04-10T17:07:56.931Z,16.30
2023-04-10T17:11:18.526Z,16.10
2023-04-10T17:14:40.110Z,15.90
2023-04-10T17:18:03.112Z,15.70
2023-04-10T17:21:24.700Z,15.60
2023-04-10T17:24:46.253Z,15.40
2023-04-10T17:28:08.073Z,15.30
2023-04-10T17:31:29.716Z,15.20
2023-04-10T17:34:52.628Z,15.10
2023-04-10T17:38:14.165Z,15.00
2023-04-10T17:41:35.747Z,14.90
2023-04-10T17:44:57.347Z,14.80
2023-04-10T17:48:19.049Z,14.80
2023-04-10T17:51:42.080Z,14.70
2023-04-10T17:55:04.308Z,14.60
2023-04-10T17:58:26.336Z,14.50
2023-04-10T18:01:48.163Z,14.50
2023-04-10T18:05:09.862Z,14.40
2023-04-10T18:08:32.796Z,14.40
2023-04-10T18:11:54.397Z,14.30
2023-04-10T18:15:15.946Z,14.20
2023-04-10T18:18:37.663Z,14.20
2023-04-10T18:21:59.536Z,14.20
2023-04-10T18:25:22.526Z,14.10
2023-04-10T18:28:44.087Z,14.10
2023-04-10T18:32:07.006Z,14.00
2023-04-10T18:35:30.279Z,13.90
2023-04-10T18:38:53.325Z,13.90
2023-04-10T18:42:16.495Z,13.80
2023-04-10T18:45:38.331Z,13.80
2023-04-10T18:49:00.073Z,13.70
2023-04-10T18:52:21.631Z,13.60
2023-04-10T18:55:48.112Z,13.50
2023-04-10T18:59:11.019Z,13.50
2023-04-10T19:02:32.696Z,13.50
2023-04-10T19:05:55.726Z,13.50
2023-04-10T19:09:17.328Z,13.50
2023-04-10T19:12:40.412Z,13.50
2023-04-10T19:16:04.491Z,13.50
2023-04-10T19:19:26.123Z,13.50
2023-04-10T19:22:47.698Z,13.60
2023-04-10T19:26:11.328Z,13.70
2023-04-10T19:29:32.900Z,13.70
2023-04-10T19:32:55.925Z,13.80
2023-04-10T19:36:17.816Z,13.80
2023-04-10T19:39:39.454Z,13.80
2023-04-10T19:43:01.026Z,13.80
2023-04-10T19:46:22.644Z,13.80
2023-04-10T19:49:45.642Z,13.80
2023-04-10T19:53:07.214Z,13.70
2023-04-10T19:56:28.755Z,13.70
2023-04-10T19:59:50.325Z,13.60
2023-04-10T20:03:12.028Z,13.60
2023-04-10T20:06:35.129Z,13.60
2023-04-10T20:09:56.742Z,13.60
2023-04-10T20:13:18.308Z,13.60
2023-04-10T20:16:39.893Z,13.60
2023-04-10T20:20:01.656Z,13.70
2023-04-10T20:23:26.905Z,13.80
2023-04-10T20:26:49.429Z,13.90
2023-04-10T20:30:11.605Z,13.90
2023-04-10T20:33:33.214Z,13.90
2023-04-10T20:36:54.922Z,13.80
2023-04-10T20:40:18.022Z,13.80
2023-04-10T20:43:39.762Z,13.80
2023-04-10T20:47:01.409Z,13.80
2023-04-10T20:50:22.981Z,13.70
2023-04-10T20:53:44.546Z,13.80
2023-04-10T20:57:07.470Z,13.80
2023-04-10T21:00:29.050Z,13.80
2023-04-10T21:03:50.693Z,13.70
2023-04-10T21:07:12.326Z,13.70
2023-04-10T21:10:33.902Z,13.70
2023-04-10T21:13:57.071Z,13.80
2023-04-10T21:17:19.193Z,13.80
2023-04-10T21:20:40.812Z,13.80
2023-04-10T21:24:02.399Z,13.80
2023-04-10T21:27:23.970Z,13.70
2023-04-10T21:30:47.125Z,13.70
2023-04-10T21:34:09.486Z,13.80
2023-04-10T21:37:31.084Z,13.80
2023-04-10T21:40:52.862Z,13.70
2023-04-10T21:44:14.436Z,13.80
2023-04-10T21:47:37.396Z,13.80
2023-04-10T21:50:59.213Z,13.70
2023-04-10T21:54:20.758Z,13.70
2023-04-10T21:57:42.300Z,13.70
2023-04-10T22:01:05.381Z,13.70
2023-04-10T22:04:28.336Z,13.60
2023-04-10T22:07:50.126Z,13.60
2023-04-10T22:11:11.696Z,13.70
2023-04-10T22:14:33.235Z,13.70
2023-04-10T22:17:54.841Z,13.70
2023-04-10T22:21:17.784Z,13.60
2023-04-10T22:24:39.373Z,13.70
2023-04-10T22:28:00.943Z,13.60
2023-04-10T22:31:22.558Z,13.60
2023-04-10T22:34:44.213Z,13.60
2023-04-10T22:38:07.114Z,13.60
2023-04-10T22:41:29.576Z,13.50
2023-04-10T22:44:51.198Z,13.40
2023-04-10T22:48:12.792Z,13.30
2023-04-10T22:51:34.508Z,13.30
2023-04-10T22:54:58.349Z,13.20
2023-04-10T22:58:19.913Z,13.10
2023-04-10T23:01:41.622Z,13.00
2023-04-10T23:05:04.183Z,13.10
2023-04-10T23:08:26.263Z,13.10
2023-04-10T23:11:49.256Z,13.10
2023-04-10T23:15:11.077Z,13.00
2023-04-10T23:18:33.103Z,13.00
2023-04-10T23:21:54.653Z,12.90
2023-04-10T23:25:16.822Z,12.90
2023-04-10T23:28:40.065Z,13.00
2023-04-10T23:32:01.628Z,13.00
2023-04-10T23:35:23.379Z,13.10
2023-04-10T23:38:44.992Z,13.20
2023-04-10T23:42:06.537Z,13.20
2023-04-10T23:45:29.442Z,13.20
2023-04-10T23:48:51.283Z,13.30
2023-04-10T23:52:12.900Z,13.30
2023-04-10T23:55:34.556Z,13.30
2023-04-10T23:58:56.712Z,13.30
